Time,TemperatureF,DewpointF,PressureIn,WindDirection,WindDirectionDegrees,WindSpeedMPH,WindSpeedGustMPH,Humidity,HourlyPrecipIn,Conditions,Clouds,dailyrainin,SoftwareType,DateUTC
2013-08-11 00:01:00,72.6,69.5,30.14,WSW,243,0.0,0.0,90,0.00,CLR,,0.00,WeatherDisplay:10.37,2013-08-11 04:01:00,
2013-08-11 00:06:00,72.4,69.3,30.14,WSW,243,0.0,0.0,90,0.00,CLR,,0.00,WeatherDisplay:10.37,2013-08-11 04:06:00,
2013-08-11 00:11:00,72.3,69.2,30.14,WSW,242,0.0,0.0,90,0.00,CLR,,0.00,WeatherDisplay:10.37,2013-08-11 04:11:00,
2013-08-11 00:16:00,72.2,69.1,30.14,WSW,242,0.0,0.0,90,0.00,CLR,,0.00,WeatherDisplay:10.37,2013-08-11 04:16:00,
2013-08-11 00:21:00,72.2,69.1,30.14,WSW,241,0.0,0.0,90,0.00,CLR,,0.00,WeatherDisplay:10.37,2013-08-11 04:21:00,
2013-08-11 00:26:00,72.2,69.1,30.14,WSW,241,0.0,0.0,90,0.00,CLR,,0.00,WeatherDisplay:10.37,2013-08-11 04:26:00,
2013-08-11 00:31:00,72.1,69.0,30.14,WSW,241,0.0,0.0,90,0.00,CLR,,0.00,WeatherDisplay:10.37,2013-08-11 04:31:00,
2013-08-11 00:36:00,72.1,69.0,30.14,WSW,242,0.0,0.0,90,0.00,CLR,,0.00,WeatherDisplay:10.37,2013-08-11 04:36:00,
2013-08-11 00:41:00,71.9,68.8,30.14,WSW,241,0.0,0.0,90,0.00,CLR,,0.00,WeatherDisplay:10.37,2013-08-11 04:41:00,
2013-08-11 00:46:00,71.8,68.7,30.14,WSW,241,0.0,0.0,90,0.00,CLR,,0.00,WeatherDisplay:10.37,2013-08-11 04:46:00,
2013-08-11 00:51:00,71.7,68.9,30.14,SSW,211,0.0,0.0,91,0.00,CLR,,0.00,WeatherDisplay:10.37,2013-08-11 04:51:00,
2013-08-11 00:56:00,71.5,68.7,30.14,SW,223,0.0,0.0,91,0.00,CLR,,0.00,WeatherDisplay:10.37,2013-08-11 04:56:00,
2013-08-11 01:01:00,71.4,68.6,30.14,SSW,211,0.0,0.0,91,0.00,CLR,,0.00,WeatherDisplay:10.37,2013-08-11 05:01:00,
2013-08-11 01:06:00,71.3,68.5,30.14,SSW,211,0.0,0.0,91,0.00,CLR,,0.00,WeatherDisplay:10.37,2013-08-11 05:06:00,
2013-08-11 01:11:00,71.2,68.8,30.14,SSW,211,0.0,0.0,92,0.00,CLR,,0.00,WeatherDisplay:10.37,2013-08-11 05:11:00,
2013-08-11 01:17:00,71.1,68.7,30.14,SSW,211,0.0,0.0,92,0.00,CLR,,0.00,WeatherDisplay:10.37,2013-08-11 05:17:00,
2013-08-11 01:22:00,71.1,68.7,30.14,SSW,211,0.0,0.0,92,0.00,CLR,,0.00,WeatherDisplay:10.37,2013-08-11 05:22:00,
2013-08-11 01:27:00,71.0,68.6,30.13,SSW,211,0.0,0.0,92,0.00,CLR,,0.00,WeatherDisplay:10.37,2013-08-11 05:27:00,
2013-08-11 01:32:00,70.9,68.5,30.13,SSW,212,0.0,0.0,92,0.00,CLR,,0.00,WeatherDisplay:10.37,2013-08-11 05:32:00,
2013-08-11 01:37:00,70.8,68.4,30.13,SSW,211,0.0,0.0,92,0.00,CLR,,0.00,WeatherDisplay:10.37,2013-08-11 05:37:00,
2013-08-11 01:43:00,70.7,68.3,30.13,SSW,212,0.0,0.0,92,0.00,CLR,,0.00,WeatherDisplay:10.37,2013-08-11 05:43:00,
2013-08-11 01:48:00,70.6,68.5,30.13,SSW,211,0.0,0.0,93,0.00,CLR,,0.00,WeatherDisplay:10.37,2013-08-11 05:48:00,
2013-08-11 01:53:00,70.5,68.4,30.13,SSW,212,0.0,0.0,93,0.00,CLR,,0.00,WeatherDisplay:10.37,2013-08-11 05:53:00,
2013-08-11 01:58:00,70.4,68.3,30.13,SSW,212,0.0,0.0,93,0.00,CLR,,0.00,WeatherDisplay:10.37,2013-08-11 05:58:00,
2013-08-11 02:03:00,70.3,68.2,30.13,SSW,212,0.0,0.0,93,0.00,CLR,,0.00,WeatherDisplay:10.37,2013-08-11 06:03:00,
2013-08-11 02:08:00,70.3,68.2,30.13,SSW,211,0.0,0.0,93,0.00,CLR,,0.00,WeatherDisplay:10.37,2013-08-11 06:08:00,
2013-08-11 02:13:00,70.2,68.1,30.13,SSW,212,0.0,0.0,93,0.00,CLR,,0.00,WeatherDisplay:10.37,2013-08-11 06:13:00,
2013-08-11 02:18:00,70.2,68.1,30.13,SSW,212,0.0,0.0,93,0.00,CLR,,0.00,WeatherDisplay:10.37,2013-08-11 06:18:00,
2013-08-11 02:23:00,70.2,68.1,30.13,SSW,212,0.0,0.0,93,0.00,CLR,,0.00,WeatherDisplay:10.37,2013-08-11 06:23:00,
2013-08-11 02:28:00,70.2,68.1,30.12,SSW,212,0.0,0.0,93,0.00,CLR,,0.00,WeatherDisplay:10.37,2013-08-11 06:28:00,
2013-08-11 02:34:00,70.2,68.4,30.13,SSW,212,0.0,0.0,94,0.00,CLR,,0.00,WeatherDisplay:10.37,2013-08-11 06:34:00,
2013-08-11 02:39:00,70.2,68.1,30.13,SSW,212,0.0,0.0,93,0.00,CLR,,0.00,WeatherDisplay:10.37,2013-08-11 06:39:00,
2013-08-11 02:44:00,70.2,68.4,30.13,SSW,212,0.0,0.0,94,0.00,CLR,,0.00,WeatherDisplay:10.37,2013-08-11 06:44:00,
2013-08-11 02:49:00,70.2,68.4,30.13,SSW,211,0.0,0.0,94,0.00,BKN,,0.00,WeatherDisplay:10.37,2013-08-11 06:49:00,
2013-08-11 02:55:00,70.2,68.4,30.13,SSW,212,0.0,0.0,94,0.00,BKN,,0.00,WeatherDisplay:10.37,2013-08-11 06:55:00,
2013-08-11 03:00:00,70.3,68.5,30.13,SSW,212,0.0,0.0,94,0.00,BKN,,0.00,WeatherDisplay:10.37,2013-08-11 07:00:00,
2013-08-11 03:05:00,70.4,68.6,30.13,SSW,212,0.0,0.0,94,0.00,OVC,,0.00,WeatherDisplay:10.37,2013-08-11 07:05:00,
2013-08-11 03:10:00,70.4,68.6,30.13,SSW,212,0.0,0.0,94,0.00,OVC,,0.00,WeatherDisplay:10.37,2013-08-11 07:10:00,
2013-08-11 03:15:00,70.5,68.7,30.13,SSW,212,0.0,0.0,94,0.00,OVC,,0.00,WeatherDisplay:10.37,2013-08-11 07:15:00,
2013-08-11 03:20:00,70.5,68.7,30.13,SSW,212,0.0,0.0,94,0.00,OVC,,0.00,WeatherDisplay:10.37,2013-08-11 07:20:00,
2013-08-11 03:26:00,70.6,68.8,30.13,SSW,212,0.0,0.0,94,0.00,OVC,,0.00,WeatherDisplay:10.37,2013-08-11 07:26:00,
2013-08-11 03:31:00,70.7,68.9,30.13,SSW,212,0.0,0.0,94,0.00,OVC,,0.00,WeatherDisplay:10.37,2013-08-11 07:31:00,
2013-08-11 03:37:00,70.7,68.9,30.13,SSW,212,0.0,0.0,94,0.00,OVC,,0.00,WeatherDisplay:10.37,2013-08-11 07:37:00,
2013-08-11 03:42:00,70.8,69.0,30.13,SSW,212,0.0,0.0,94,0.00,OVC,,0.00,WeatherDisplay:10.37,2013-08-11 07:42:00,
2013-08-11 03:47:00,70.9,69.1,30.13,SSW,212,0.0,0.0,94,0.00,OVC,,0.00,WeatherDisplay:10.37,2013-08-11 07:47:00,
2013-08-11 03:53:00,70.9,69.1,30.13,SSW,212,0.0,0.0,94,0.00,OVC,,0.00,WeatherDisplay:10.37,2013-08-11 07:53:00,
2013-08-11 03:58:00,70.9,69.1,30.13,SSW,212,0.0,0.0,94,0.00,OVC,,0.00,WeatherDisplay:10.37,2013-08-11 07:58:00,
2013-08-11 04:03:00,70.9,68.8,30.14,SSW,212,0.0,0.0,93,0.00,OVC,,0.00,WeatherDisplay:10.37,2013-08-11 08:03:00,
2013-08-11 04:08:00,70.9,68.8,30.14,SSW,212,0.0,0.0,93,0.00,OVC,,0.00,WeatherDisplay:10.37,2013-08-11 08:08:00,
2013-08-11 04:13:00,70.9,68.8,30.14,SSW,212,0.0,0.0,93,0.00,OVC,,0.00,WeatherDisplay:10.37,2013-08-11 08:13:00,
2013-08-11 04:18:00,71.0,68.9,30.14,SSW,212,0.0,0.0,93,0.00,OVC,,0.00,WeatherDisplay:10.37,2013-08-11 08:18:00,
2013-08-11 04:23:00,71.0,68.9,30.14,SSW,212,0.0,0.0,93,0.00,OVC,,0.00,WeatherDisplay:10.37,2013-08-11 08:23:00,
2013-08-11 04:28:00,71.0,68.9,30.14,SSW,212,0.0,0.0,93,0.00,OVC,,0.00,WeatherDisplay:10.37,2013-08-11 08:28:00,
2013-08-11 04:33:00,70.9,68.8,30.14,SSW,212,0.0,0.0,93,0.00,OVC,,0.00,WeatherDisplay:10.37,2013-08-11 08:33:00,
2013-08-11 04:38:00,70.9,68.8,30.14,SSW,212,0.0,0.0,93,0.00,OVC,,0.00,WeatherDisplay:10.37,2013-08-11 08:38:00,
2013-08-11 04:44:00,70.7,68.6,30.14,SSW,213,0.0,0.0,93,0.00,OVC,,0.00,WeatherDisplay:10.37,2013-08-11 08:44:00,
2013-08-11 04:49:00,70.7,68.6,30.14,SSW,212,0.0,0.0,93,0.00,OVC,,0.00,WeatherDisplay:10.37,2013-08-11 08:49:00,
2013-08-11 04:54:00,70.6,68.5,30.14,SSW,212,0.0,0.0,93,0.00,OVC,,0.00,WeatherDisplay:10.37,2013-08-11 08:54:00,
2013-08-11 04:59:00,70.5,68.4,30.14,SSW,212,0.0,0.0,93,0.00,OVC,,0.00,WeatherDisplay:10.37,2013-08-11 08:59:00,
2013-08-11 05:04:00,70.4,68.3,30.14,SSW,212,0.0,0.0,93,0.00,OVC,,0.00,WeatherDisplay:10.37,2013-08-11 09:04:00,
2013-08-11 05:09:00,70.3,68.2,30.14,SSW,212,0.0,0.0,93,0.00,OVC,,0.00,WeatherDisplay:10.37,2013-08-11 09:09:00,
2013-08-11 05:14:00,70.2,68.1,30.14,SSW,212,0.0,0.0,93,0.00,OVC,,0.00,WeatherDisplay:10.37,2013-08-11 09:14:00,
2013-08-11 05:20:00,70.1,68.0,30.14,SSW,212,0.0,0.0,93,0.00,OVC,,0.00,WeatherDisplay:10.37,2013-08-11 09:20:00,
2013-08-11 05:25:00,70.0,67.9,30.14,SSW,212,0.0,0.0,93,0.00,OVC,,0.00,WeatherDisplay:10.37,2013-08-11 09:25:00,
2013-08-11 05:30:00,70.0,67.9,30.14,SSW,212,0.0,0.0,93,0.00,OVC,,0.00,WeatherDisplay:10.37,2013-08-11 09:30:00,
2013-08-11 05:35:00,69.9,67.8,30.14,SSW,212,0.0,0.0,93,0.00,OVC,,0.00,WeatherDisplay:10.37,2013-08-11 09:35:00,
2013-08-11 05:40:00,69.8,67.7,30.14,SSW,211,0.0,0.0,93,0.00,OVC,,0.00,WeatherDisplay:10.37,2013-08-11 09:40:00,
2013-08-11 05:45:00,69.7,67.6,30.14,SSW,212,0.0,0.0,93,0.00,BKN,,0.00,WeatherDisplay:10.37,2013-08-11 09:45:00,
2013-08-11 05:50:00,69.6,67.8,30.14,SSW,212,0.0,0.0,94,0.00,BKN,,0.00,WeatherDisplay:10.37,2013-08-11 09:50:00,
2013-08-11 05:55:00,69.6,67.8,30.14,SSW,211,0.0,0.0,94,0.00,BKN,,0.00,WeatherDisplay:10.37,2013-08-11 09:55:00,
2013-08-11 06:01:00,69.6,67.8,30.14,SSW,212,0.0,0.0,94,0.00,OVC,,0.00,WeatherDisplay:10.37,2013-08-11 10:01:00,
2013-08-11 06:06:00,69.5,67.7,30.14,SSW,212,0.0,0.0,94,0.00,OVC,,0.00,WeatherDisplay:10.37,2013-08-11 10:06:00,
2013-08-11 06:11:00,69.4,67.6,30.15,SSW,212,0.0,0.0,94,0.00,OVC,,0.00,WeatherDisplay:10.37,2013-08-11 10:11:00,
2013-08-11 06:16:00,69.4,67.6,30.15,SSW,212,0.0,0.0,94,0.00,OVC,,0.00,WeatherDisplay:10.37,2013-08-11 10:16:00,
2013-08-11 06:21:00,69.4,67.6,30.15,SSW,212,0.0,0.0,94,0.00,OVC,,0.00,WeatherDisplay:10.37,2013-08-11 10:21:00,
2013-08-11 06:26:00,69.4,67.6,30.15,SSW,212,0.0,0.0,94,0.00,OVC,,0.00,WeatherDisplay:10.37,2013-08-11 10:26:00,
2013-08-11 06:31:00,69.4,67.6,30.15,SSW,212,0.0,0.0,94,0.00,OVC,,0.00,WeatherDisplay:10.37,2013-08-11 10:31:00,
2013-08-11 06:36:00,69.4,67.6,30.15,SSW,212,0.0,0.0,94,0.00,OVC,,0.00,WeatherDisplay:10.37,2013-08-11 10:36:00,
2013-08-11 06:41:00,69.4,67.6,30.15,SSW,212,0.0,0.0,94,0.00,OVC,,0.00,WeatherDisplay:10.37,2013-08-11 10:41:00,
2013-08-11 06:46:00,69.4,67.6,30.15,SSW,212,0.0,0.0,94,0.00,OVC,,0.00,WeatherDisplay:10.37,2013-08-11 10:46:00,
2013-08-11 06:51:00,69.4,67.9,30.15,SSW,212,0.0,0.0,95,0.00,OVC,,0.00,WeatherDisplay:10.37,2013-08-11 10:51:00,
2013-08-11 06:56:00,69.5,67.7,30.16,SW,214,0.0,0.0,94,0.00,OVC,,0.00,WeatherDisplay:10.37,2013-08-11 10:56:00,
2013-08-11 07:01:00,69.5,67.7,30.15,SW,217,0.0,0.0,94,0.00,SCT,,0.00,WeatherDisplay:10.37,2013-08-11 11:01:00,
2013-08-11 07:06:00,69.4,67.6,30.16,SW,217,0.0,0.0,94,0.00,SCT,,0.00,WeatherDisplay:10.37,2013-08-11 11:06:00,
2013-08-11 07:11:00,69.4,67.6,30.16,SW,217,0.0,0.0,94,0.00,SCT,,0.00,WeatherDisplay:10.37,2013-08-11 11:11:00,
2013-08-11 07:16:00,69.3,67.5,30.16,SW,217,0.0,0.0,94,0.00,BKN,,0.00,WeatherDisplay:10.37,2013-08-11 11:16:00,
2013-08-11 07:21:00,69.3,67.8,30.16,SW,217,0.1,1.2,95,0.00,BKN,,0.00,WeatherDisplay:10.37,2013-08-11 11:21:00,
2013-08-11 07:26:00,69.4,67.9,30.16,SW,217,0.0,0.0,95,0.00,BKN,,0.00,WeatherDisplay:10.37,2013-08-11 11:26:00,
2013-08-11 07:31:00,69.4,67.9,30.16,SW,217,0.0,0.0,95,0.00,BKN,,0.00,WeatherDisplay:10.37,2013-08-11 11:31:00,
2013-08-11 07:36:00,69.5,68.0,30.16,SW,217,0.0,0.0,95,0.00,BKN,,0.00,WeatherDisplay:10.37,2013-08-11 11:36:00,
2013-08-11 07:41:00,69.6,68.1,30.16,SW,217,0.0,0.0,95,0.00,BKN,,0.00,WeatherDisplay:10.37,2013-08-11 11:41:00,
2013-08-11 07:46:00,69.7,68.2,30.16,SW,217,0.0,0.0,95,0.00,BKN,,0.00,WeatherDisplay:10.37,2013-08-11 11:46:00,
2013-08-11 07:51:00,69.8,68.3,30.16,SW,217,0.0,0.0,95,0.00,BKN,,0.00,WeatherDisplay:10.37,2013-08-11 11:51:00,
2013-08-11 07:56:00,69.9,68.4,30.16,SW,217,0.0,0.0,95,0.00,BKN,,0.00,WeatherDisplay:10.37,2013-08-11 11:56:00,
2013-08-11 08:01:00,70.2,68.7,30.16,SW,217,0.0,0.0,95,0.00,SCT,,0.00,WeatherDisplay:10.37,2013-08-11 12:01:00,
2013-08-11 08:06:00,70.5,69.0,30.15,SW,219,0.0,0.0,95,0.00,SCT,,0.00,WeatherDisplay:10.37,2013-08-11 12:06:00,
2013-08-11 08:11:00,70.8,69.0,30.15,SW,221,0.0,0.0,94,0.00,SCT,,0.00,WeatherDisplay:10.37,2013-08-11 12:11:00,
2013-08-11 08:16:00,71.1,69.3,30.16,SW,222,0.0,1.2,94,0.00,SCT,,0.00,WeatherDisplay:10.37,2013-08-11 12:16:00,
2013-08-11 08:21:00,71.4,69.6,30.16,SW,222,0.0,0.0,94,0.00,SCT,,0.00,WeatherDisplay:10.37,2013-08-11 12:21:00,
2013-08-11 08:26:00,71.7,69.9,30.16,SW,222,0.0,0.0,94,0.00,SCT,,0.00,WeatherDisplay:10.37,2013-08-11 12:26:00,
2013-08-11 08:31:00,72.1,70.0,30.16,SW,222,0.0,0.0,93,0.00,SCT,,0.00,WeatherDisplay:10.37,2013-08-11 12:31:00,
2013-08-11 08:36:00,72.4,69.9,30.16,WSW,248,0.7,1.2,92,0.00,SCT,,0.00,WeatherDisplay:10.37,2013-08-11 12:36:00,
2013-08-11 08:41:00,72.6,69.8,30.16,WSW,242,0.0,0.0,91,0.00,SCT,,0.00,WeatherDisplay:10.37,2013-08-11 12:41:00,
2013-08-11 08:46:00,72.8,70.0,30.16,WSW,248,0.0,0.0,91,0.00,SCT,,0.00,WeatherDisplay:10.37,2013-08-11 12:46:00,
2013-08-11 08:51:00,73.1,70.0,30.16,WSW,248,0.0,0.0,90,0.00,SCT,,0.00,WeatherDisplay:10.37,2013-08-11 12:51:00,
2013-08-11 08:56:00,73.4,70.3,30.16,WSW,248,0.0,0.0,90,0.00,SCT,,0.00,WeatherDisplay:10.37,2013-08-11 12:56:00,
2013-08-11 09:01:00,73.7,70.6,30.17,WSW,248,0.0,0.0,90,0.00,BKN,,0.00,WeatherDisplay:10.37,2013-08-11 13:01:00,
2013-08-11 09:06:00,74.0,70.6,30.17,WSW,247,0.0,0.0,89,0.00,BKN,,0.00,WeatherDisplay:10.37,2013-08-11 13:06:00,
2013-08-11 09:11:00,74.2,70.7,30.16,South,176,0.0,0.0,89,0.00,BKN,,0.00,WeatherDisplay:10.37,2013-08-11 13:11:00,
2013-08-11 09:16:00,74.5,70.7,30.16,South,177,0.0,0.0,88,0.00,BKN,,0.00,WeatherDisplay:10.37,2013-08-11 13:16:00,
2013-08-11 09:21:00,74.7,70.6,30.16,South,184,0.0,0.0,87,0.00,BKN,,0.00,WeatherDisplay:10.37,2013-08-11 13:21:00,
2013-08-11 09:26:00,74.8,70.7,30.16,West,266,0.0,2.3,87,0.00,BKN,,0.00,WeatherDisplay:10.37,2013-08-11 13:26:00,
2013-08-11 09:31:00,75.0,70.5,30.16,SW,221,0.0,0.0,86,0.00,BKN,,0.00,WeatherDisplay:10.37,2013-08-11 13:31:00,
2013-08-11 09:36:00,75.3,70.8,30.16,South,184,0.0,0.0,86,0.00,BKN,,0.00,WeatherDisplay:10.37,2013-08-11 13:36:00,
2013-08-11 09:41:00,75.5,70.7,30.16,SSW,197,1.0,0.0,85,0.00,BKN,,0.00,WeatherDisplay:10.37,2013-08-11 13:41:00,
2013-08-11 09:46:00,75.7,70.5,30.16,SW,221,0.0,0.0,84,0.00,BKN,,0.00,WeatherDisplay:10.37,2013-08-11 13:46:00,
2013-08-11 09:51:00,76.2,71.0,30.16,SSW,194,0.0,0.0,84,0.00,BKN,,0.00,WeatherDisplay:10.37,2013-08-11 13:51:00,
2013-08-11 09:56:00,76.6,71.4,30.16,South,177,0.0,0.0,84,0.00,BKN,,0.00,WeatherDisplay:10.37,2013-08-11 13:56:00,
2013-08-11 10:01:00,76.8,71.6,30.16,South,179,0.0,0.0,84,0.00,SCT,,0.00,WeatherDisplay:10.37,2013-08-11 14:01:00,
2013-08-11 10:06:00,77.2,71.6,30.16,South,176,0.0,0.0,83,0.00,SCT,,0.00,WeatherDisplay:10.37,2013-08-11 14:06:00,
2013-08-11 10:11:00,77.5,71.6,30.16,SW,214,0.0,0.0,82,0.00,SCT,,0.00,WeatherDisplay:10.37,2013-08-11 14:11:00,
2013-08-11 10:16:00,77.8,70.8,30.16,West,273,0.0,0.0,79,0.00,SCT,,0.00,WeatherDisplay:10.37,2013-08-11 14:16:00,
2013-08-11 10:21:00,78.2,71.5,30.16,WSW,245,1.6,3.5,80,0.00,SCT,,0.00,WeatherDisplay:10.37,2013-08-11 14:21:00,
2013-08-11 10:26:00,78.4,71.4,30.16,WSW,240,1.0,0.0,79,0.00,SCT,,0.00,WeatherDisplay:10.37,2013-08-11 14:26:00,
2013-08-11 10:31:00,79.0,72.0,30.16,SSW,211,0.0,0.0,79,0.00,SCT,,0.00,WeatherDisplay:10.37,2013-08-11 14:31:00,
2013-08-11 10:36:00,79.3,71.1,30.16,SSW,211,1.0,0.0,76,0.00,SCT,,0.00,WeatherDisplay:10.37,2013-08-11 14:36:00,
2013-08-11 10:41:00,79.6,71.0,30.16,SW,224,1.0,0.0,75,0.00,SCT,,0.00,WeatherDisplay:10.37,2013-08-11 14:41:00,
2013-08-11 10:46:00,80.1,71.1,30.16,SSW,205,0.0,0.0,74,0.00,SCT,,0.00,WeatherDisplay:10.37,2013-08-11 14:46:00,
2013-08-11 10:51:00,80.4,71.4,30.16,South,183,0.0,0.0,74,0.00,SCT,,0.00,WeatherDisplay:10.37,2013-08-11 14:51:00,
2013-08-11 10:56:00,80.8,71.3,30.16,South,176,0.0,0.0,73,0.00,SCT,,0.00,WeatherDisplay:10.37,2013-08-11 14:56:00,
2013-08-11 11:01:00,81.4,71.5,30.16,South,182,0.0,0.0,72,0.00,FEW,,0.00,WeatherDisplay:10.37,2013-08-11 15:01:00,
2013-08-11 11:06:00,81.7,70.5,30.16,South,191,2.0,0.0,69,0.00,FEW,,0.00,WeatherDisplay:10.37,2013-08-11 15:06:00,
2013-08-11 11:11:00,81.8,69.8,30.15,South,186,3.0,0.0,67,0.00,FEW,,0.00,WeatherDisplay:10.37,2013-08-11 15:11:00,
2013-08-11 11:16:00,81.7,70.1,30.15,SSE,147,0.1,1.2,68,0.00,FEW,,0.00,WeatherDisplay:10.37,2013-08-11 15:16:00,
2013-08-11 11:21:00,82.0,70.0,30.15,SE,141,0.0,0.0,67,0.00,FEW,,0.00,WeatherDisplay:10.37,2013-08-11 15:21:00,
2013-08-11 11:26:00,82.2,70.6,30.15,WSW,258,1.0,0.0,68,0.00,FEW,,0.00,WeatherDisplay:10.37,2013-08-11 15:26:00,
2013-08-11 11:31:00,82.2,69.7,30.15,SW,217,3.1,9.2,66,0.00,FEW,,0.00,WeatherDisplay:10.37,2013-08-11 15:31:00,
2013-08-11 11:36:00,82.5,69.5,30.15,WSW,247,1.0,0.0,65,0.00,FEW,,0.00,WeatherDisplay:10.37,2013-08-11 15:36:00,
2013-08-11 11:41:00,82.6,70.5,30.15,WSW,250,3.1,4.0,67,0.00,FEW,,0.00,WeatherDisplay:10.37,2013-08-11 15:41:00,
2013-08-11 11:46:00,83.0,70.9,30.15,West,279,2.0,0.0,67,0.00,FEW,,0.00,WeatherDisplay:10.37,2013-08-11 15:46:00,
2013-08-11 11:51:00,82.9,69.9,30.14,SSW,208,1.0,0.0,65,0.00,FEW,,0.00,WeatherDisplay:10.37,2013-08-11 15:51:00,
2013-08-11 11:56:00,83.1,71.0,30.14,SSW,206,1.0,0.0,67,0.00,FEW,,0.00,WeatherDisplay:10.37,2013-08-11 15:56:00,
2013-08-11 12:01:00,82.8,70.7,30.14,West,266,1.0,0.0,67,0.00,FEW,,0.00,WeatherDisplay:10.37,2013-08-11 16:01:00,
2013-08-11 12:06:00,82.6,70.1,30.14,SW,232,0.0,0.0,66,0.00,FEW,,0.00,WeatherDisplay:10.37,2013-08-11 16:06:00,
2013-08-11 12:11:00,82.4,70.8,30.14,SW,234,0.0,0.0,68,0.00,FEW,,0.00,WeatherDisplay:10.37,2013-08-11 16:11:00,
2013-08-11 12:17:00,82.5,71.3,30.14,North,1,0.9,2.3,69,0.00,BKN,,0.00,WeatherDisplay:10.37,2013-08-11 16:17:00,
2013-08-11 12:22:00,82.7,70.2,30.14,WSW,257,2.2,9.2,66,0.00,BKN,,0.00,WeatherDisplay:10.37,2013-08-11 16:22:00,
2013-08-11 12:27:00,82.9,70.4,30.14,North,356,0.4,1.2,66,0.00,BKN,,0.00,WeatherDisplay:10.37,2013-08-11 16:27:00,
2013-08-11 12:32:00,83.4,70.4,30.14,SW,214,0.2,1.2,65,0.00,BKN,,0.00,WeatherDisplay:10.37,2013-08-11 16:32:00,
2013-08-11 12:37:00,83.6,70.6,30.13,East,86,0.1,1.0,65,0.00,BKN,,0.00,WeatherDisplay:10.37,2013-08-11 16:37:00,
2013-08-11 12:42:00,83.4,69.9,30.13,WSW,242,4.1,6.9,64,0.00,BKN,,0.00,WeatherDisplay:10.37,2013-08-11 16:42:00,
2013-08-11 12:47:00,83.0,70.0,30.13,NW,311,1.4,3.5,65,0.00,BKN,,0.00,WeatherDisplay:10.37,2013-08-11 16:47:00,
2013-08-11 12:52:00,83.1,70.1,30.13,West,274,1.8,3.5,65,0.00,BKN,,0.00,WeatherDisplay:10.37,2013-08-11 16:52:00,
2013-08-11 12:58:00,83.2,69.8,30.13,SW,228,1.6,3.5,64,0.00,BKN,,0.00,WeatherDisplay:10.37,2013-08-11 16:58:00,
2013-08-11 13:03:00,83.7,70.2,30.13,NNE,16,1.0,2.3,64,0.00,BKN,,0.00,WeatherDisplay:10.37,2013-08-11 17:03:00,
2013-08-11 13:08:00,83.5,70.0,30.13,SSW,194,2.1,6.0,64,0.00,BKN,,0.00,WeatherDisplay:10.37,2013-08-11 17:08:00,
2013-08-11 13:13:00,83.1,69.2,30.13,SSE,158,2.1,4.6,63,0.00,BKN,,0.00,WeatherDisplay:10.37,2013-08-11 17:13:00,
2013-08-11 13:18:00,83.4,70.8,30.13,South,176,1.2,3.5,66,0.00,BKN,,0.00,WeatherDisplay:10.37,2013-08-11 17:18:00,
2013-08-11 13:23:00,83.4,69.5,30.12,WNW,302,2.0,3.5,63,0.00,BKN,,0.00,WeatherDisplay:10.37,2013-08-11 17:23:00,
2013-08-11 13:28:00,83.1,69.7,30.12,NNW,348,1.0,0.0,64,0.00,BKN,,0.00,WeatherDisplay:10.37,2013-08-11 17:28:00,
2013-08-11 13:34:00,83.0,70.0,30.12,SW,228,3.0,6.0,65,0.00,BKN,,0.00,WeatherDisplay:10.37,2013-08-11 17:34:00,
2013-08-11 13:39:00,83.2,71.5,30.12,SSE,148,0.2,3.5,68,0.00,BKN,,0.00,WeatherDisplay:10.37,2013-08-11 17:39:00,
2013-08-11 13:45:00,84.0,71.9,30.11,SW,232,1.7,6.0,67,0.00,BKN,,0.00,WeatherDisplay:10.37,2013-08-11 17:45:00,
2013-08-11 13:50:00,84.6,70.6,30.11,East,100,0.3,2.3,63,0.00,BKN,,0.00,WeatherDisplay:10.37,2013-08-11 17:50:00,
2013-08-11 13:55:00,85.3,71.3,30.11,South,189,0.5,1.2,63,0.00,BKN,,0.00,WeatherDisplay:10.37,2013-08-11 17:55:00,
2013-08-11 14:00:00,85.7,72.1,30.11,East,93,0.9,2.3,64,0.00,SCT,,0.00,WeatherDisplay:10.37,2013-08-11 18:00:00,
2013-08-11 14:05:00,86.5,71.5,30.11,WNW,284,1.4,3.5,61,0.00,SCT,,0.00,WeatherDisplay:10.37,2013-08-11 18:05:00,
2013-08-11 14:11:00,87.0,71.4,30.11,SW,224,1.6,3.5,60,0.00,SCT,,0.00,WeatherDisplay:10.37,2013-08-11 18:11:00,
2013-08-11 14:17:00,87.4,72.3,30.11,North,1,0.7,2.3,61,0.00,SCT,,0.00,WeatherDisplay:10.37,2013-08-11 18:17:00,
2013-08-11 14:22:00,86.9,69.8,30.10,SW,224,3.0,4.6,57,0.00,SCT,,0.00,WeatherDisplay:10.37,2013-08-11 18:22:00,
2013-08-11 14:28:00,86.1,70.1,30.10,ESE,103,1.2,3.5,59,0.00,SCT,,0.00,WeatherDisplay:10.37,2013-08-11 18:28:00,
2013-08-11 14:33:00,85.6,70.6,30.10,SW,236,1.0,3.5,61,0.00,SCT,,0.00,WeatherDisplay:10.37,2013-08-11 18:33:00,
2013-08-11 14:38:00,86.4,71.4,30.10,South,189,0.3,1.0,61,0.00,SCT,,0.00,WeatherDisplay:10.37,2013-08-11 18:38:00,
2013-08-11 14:43:00,87.6,71.5,30.10,NW,323,0.7,2.3,59,0.00,SCT,,0.00,WeatherDisplay:10.37,2013-08-11 18:43:00,
2013-08-11 14:48:00,88.3,72.7,30.10,West,259,1.4,3.0,60,0.00,SCT,,0.00,WeatherDisplay:10.37,2013-08-11 18:48:00,
2013-08-11 14:53:00,87.9,71.3,30.10,SW,220,3.3,3.5,58,0.00,SCT,,0.00,WeatherDisplay:10.37,2013-08-11 18:53:00,
2013-08-11 14:59:00,87.8,71.2,30.09,SW,216,0.4,4.6,58,0.00,SCT,,0.00,WeatherDisplay:10.37,2013-08-11 18:59:00,
2013-08-11 15:04:00,88.2,71.6,30.09,WSW,257,0.4,1.2,58,0.00,SCT,,0.00,WeatherDisplay:10.37,2013-08-11 19:04:00,
2013-08-11 15:09:00,88.2,71.6,30.09,NE,43,0.7,2.3,58,0.00,SCT,,0.00,WeatherDisplay:10.37,2013-08-11 19:09:00,
2013-08-11 15:14:00,86.9,71.3,30.09,WSW,250,1.5,3.5,60,0.00,SCT,,0.00,WeatherDisplay:10.37,2013-08-11 19:14:00,
2013-08-11 15:19:00,86.5,71.5,30.09,North,1,0.8,2.3,61,0.00,SCT,,0.00,WeatherDisplay:10.37,2013-08-11 19:19:00,
2013-08-11 15:24:00,87.0,73.3,30.08,North,1,0.0,1.0,64,0.00,SCT,,0.00,WeatherDisplay:10.37,2013-08-11 19:24:00,
2013-08-11 15:29:00,87.8,73.2,30.08,South,176,0.0,0.0,62,0.00,SCT,,0.00,WeatherDisplay:10.37,2013-08-11 19:29:00,
2013-08-11 15:35:00,88.4,72.7,30.08,West,264,1.3,5.0,60,0.00,SCT,,0.00,WeatherDisplay:10.37,2013-08-11 19:35:00,
2013-08-11 15:40:00,87.7,71.1,30.08,SW,222,0.5,2.3,58,0.00,SCT,,0.00,WeatherDisplay:10.37,2013-08-11 19:40:00,
2013-08-11 15:45:00,88.1,71.5,30.08,WSW,253,1.8,4.0,58,0.00,SCT,,0.00,WeatherDisplay:10.37,2013-08-11 19:45:00,
2013-08-11 15:50:00,87.5,69.9,30.07,SW,228,1.6,8.1,56,0.00,SCT,,0.00,WeatherDisplay:10.37,2013-08-11 19:50:00,
2013-08-11 15:55:00,87.0,70.4,30.07,SW,234,1.2,2.3,58,0.00,SCT,,0.00,WeatherDisplay:10.37,2013-08-11 19:55:00,
2013-08-11 16:00:00,86.4,69.9,30.07,WSW,250,2.6,4.6,58,0.00,SCT,,0.00,WeatherDisplay:10.37,2013-08-11 20:00:00,
2013-08-11 16:05:00,86.4,70.9,30.07,SW,235,0.3,2.3,60,0.00,SCT,,0.00,WeatherDisplay:10.37,2013-08-11 20:05:00,
2013-08-11 16:10:00,87.6,70.0,30.07,WSW,258,2.2,3.5,56,0.00,SCT,,0.00,WeatherDisplay:10.37,2013-08-11 20:10:00,
2013-08-11 16:15:00,87.6,70.0,30.07,SW,221,3.2,5.0,56,0.00,SCT,,0.00,WeatherDisplay:10.37,2013-08-11 20:15:00,
2013-08-11 16:21:00,88.3,73.1,30.07,SSE,162,0.2,2.0,61,0.00,SCT,,0.00,WeatherDisplay:10.37,2013-08-11 20:21:00,
2013-08-11 16:26:00,89.9,71.6,30.07,WSW,243,2.4,4.0,55,0.00,SCT,,0.00,WeatherDisplay:10.37,2013-08-11 20:26:00,
2013-08-11 16:31:00,88.2,71.6,30.07,WSW,256,1.7,3.5,58,0.00,SCT,,0.00,WeatherDisplay:10.37,2013-08-11 20:31:00,
2013-08-11 16:36:00,87.3,70.7,30.07,WSW,240,3.0,3.5,58,0.00,SCT,,0.00,WeatherDisplay:10.37,2013-08-11 20:36:00,
2013-08-11 16:41:00,87.2,70.6,30.07,East,87,0.6,2.3,58,0.00,SCT,,0.00,WeatherDisplay:10.37,2013-08-11 20:41:00,
2013-08-11 16:46:00,87.7,71.5,30.07,WSW,237,1.0,0.0,59,0.00,SCT,,0.00,WeatherDisplay:10.37,2013-08-11 20:46:00,
2013-08-11 16:51:00,88.1,70.5,30.07,West,264,1.0,0.0,56,0.00,SCT,,0.00,WeatherDisplay:10.37,2013-08-11 20:51:00,
2013-08-11 16:56:00,88.8,74.1,30.07,SSW,202,2.0,0.0,62,0.00,SCT,,0.00,WeatherDisplay:10.37,2013-08-11 20:56:00,
2013-08-11 17:01:00,89.0,75.2,30.07,West,260,2.0,0.0,64,0.00,BKN,,0.00,WeatherDisplay:10.37,2013-08-11 21:01:00,
2013-08-11 17:06:00,88.6,74.4,30.07,WSW,243,2.2,4.0,63,0.00,BKN,,0.00,WeatherDisplay:10.37,2013-08-11 21:06:00,
2013-08-11 17:11:00,87.8,74.6,30.07,ESE,121,2.0,3.5,65,0.00,BKN,,0.00,WeatherDisplay:10.37,2013-08-11 21:11:00,
2013-08-11 17:16:00,87.7,74.5,30.07,WSW,251,1.0,0.0,65,0.00,BKN,,0.00,WeatherDisplay:10.37,2013-08-11 21:16:00,
2013-08-11 17:21:00,87.2,74.9,30.07,WSW,245,0.0,0.0,67,0.00,BKN,,0.00,WeatherDisplay:10.37,2013-08-11 21:21:00,
2013-08-11 17:26:00,87.5,75.6,30.07,WSW,257,0.4,1.0,68,0.00,BKN,,0.00,WeatherDisplay:10.37,2013-08-11 21:26:00,
2013-08-11 17:33:00,85.6,72.5,30.08,SW,225,3.1,7.0,65,0.00,-RA,,0.00,WeatherDisplay:10.37,2013-08-11 21:33:00,
2013-08-11 17:38:00,84.0,70.5,30.08,SE,132,1.7,4.0,64,0.00,-RA,,0.00,WeatherDisplay:10.37,2013-08-11 21:38:00,
2013-08-11 17:43:00,82.7,69.7,30.07,South,184,0.0,2.3,65,0.00,-RA,,0.00,WeatherDisplay:10.37,2013-08-11 21:43:00,
2013-08-11 17:48:00,82.0,69.9,30.07,South,179,0.0,0.0,67,0.00, +RA,,0.00,WeatherDisplay:10.37,2013-08-11 21:48:00,
2013-08-11 17:53:00,82.2,70.5,30.07,SSW,193,0.0,0.0,68,0.00, +RA,,0.00,WeatherDisplay:10.37,2013-08-11 21:53:00,
2013-08-11 17:58:00,82.2,70.6,30.07,SW,225,0.0,0.0,68,0.00, +RA,,0.00,WeatherDisplay:10.37,2013-08-11 21:58:00,
2013-08-11 18:03:00,82.3,70.2,30.07,SW,221,0.1,1.2,67,0.00,-RA,,0.00,WeatherDisplay:10.37,2013-08-11 22:03:00,
2013-08-11 18:09:00,82.6,70.1,30.07,SW,221,0.0,1.2,66,0.00,-RA,,0.00,WeatherDisplay:10.37,2013-08-11 22:09:00,
2013-08-11 18:14:00,82.6,70.5,30.07,SW,221,0.1,1.2,67,0.00,-RA,,0.00,WeatherDisplay:10.37,2013-08-11 22:14:00,
2013-08-11 18:19:00,82.2,70.1,30.08,SW,221,0.0,0.0,67,0.00,-RA,,0.00,WeatherDisplay:10.37,2013-08-11 22:19:00,
2013-08-11 18:24:00,82.4,70.8,30.08,SW,221,0.0,0.0,68,0.00,-RA,,0.00,WeatherDisplay:10.37,2013-08-11 22:24:00,
2013-08-11 18:29:00,81.9,70.7,30.08,NW,325,0.0,0.0,69,0.00,-RA,,0.00,WeatherDisplay:10.37,2013-08-11 22:29:00,
2013-08-11 18:34:00,81.4,70.7,30.08,WSW,256,0.3,1.2,70,0.00,-RA,,0.00,WeatherDisplay:10.37,2013-08-11 22:34:00,
2013-08-11 18:39:00,81.0,70.7,30.08,WSW,254,0.0,1.2,71,0.00,-RA,,0.00,WeatherDisplay:10.37,2013-08-11 22:39:00,
2013-08-11 18:44:00,79.9,70.1,30.08,West,266,0.5,2.3,72,0.00,-RA,,0.00,WeatherDisplay:10.37,2013-08-11 22:44:00,
2013-08-11 18:50:00,78.9,69.9,30.08,WNW,293,0.0,1.2,74,0.00,-RA,,0.00,WeatherDisplay:10.37,2013-08-11 22:50:00,
2013-08-11 18:55:00,78.6,69.6,30.08,WNW,293,0.0,1.0,74,0.00,-RA,,0.00,WeatherDisplay:10.37,2013-08-11 22:55:00,
2013-08-11 19:01:00,78.0,69.4,30.08,West,276,0.0,1.2,75,0.00,BKN,,0.00,WeatherDisplay:10.37,2013-08-11 23:01:00,
2013-08-11 19:06:00,77.2,69.8,30.09,West,279,1.2,2.3,78,0.00,BKN,,0.00,WeatherDisplay:10.37,2013-08-11 23:06:00,
2013-08-11 19:11:00,76.7,70.4,30.09,West,281,0.1,1.2,81,0.05,RA,,0.05,WeatherDisplay:10.37,2013-08-11 23:11:00,
2013-08-11 19:16:00,75.0,70.2,30.08,ESE,120,1.0,1.2,85,0.05,RA,,0.05,WeatherDisplay:10.37,2013-08-11 23:16:00,
2013-08-11 19:22:00,74.2,70.4,30.08,SW,214,0.8,2.3,88,0.05,RA,,0.05,WeatherDisplay:10.37,2013-08-11 23:22:00,
2013-08-11 19:27:00,73.8,70.4,30.08,North,357,0.5,1.2,89,0.05,RA,,0.05,WeatherDisplay:10.37,2013-08-11 23:27:00,
2013-08-11 19:33:00,73.5,70.4,30.08,North,357,0.0,0.0,90,0.05,RA,,0.05,WeatherDisplay:10.37,2013-08-11 23:33:00,
2013-08-11 19:38:00,73.4,70.6,30.09,North,357,0.0,0.0,91,0.05,RA,,0.05,WeatherDisplay:10.37,2013-08-11 23:38:00,
2013-08-11 19:43:00,73.5,70.4,30.09,North,356,0.0,0.0,90,0.05,BKN,,0.05,WeatherDisplay:10.37,2013-08-11 23:43:00,
2013-08-11 19:48:00,73.3,70.5,30.09,SW,233,0.0,0.0,91,0.05,BKN,,0.05,WeatherDisplay:10.37,2013-08-11 23:48:00,
2013-08-11 19:53:00,73.1,70.0,30.09,SW,233,0.0,0.0,90,0.00,BKN,,0.05,WeatherDisplay:10.37,2013-08-11 23:53:00,
2013-08-11 19:58:00,72.9,70.1,30.09,SW,236,0.0,1.2,91,0.05,BKN,,0.05,WeatherDisplay:10.37,2013-08-11 23:58:00,
2013-08-11 20:03:00,72.8,70.3,30.10,SW,236,0.0,1.2,92,0.05,BKN,,0.05,WeatherDisplay:10.37,2013-08-12 00:03:00,
2013-08-11 20:08:00,72.8,70.3,30.10,SW,236,0.0,0.0,92,0.04,BKN,,0.05,WeatherDisplay:10.37,2013-08-12 00:08:00,
2013-08-11 20:13:00,72.7,70.2,30.11,SW,236,0.0,0.0,92,0.00,BKN,,0.05,WeatherDisplay:10.37,2013-08-12 00:13:00,
2013-08-11 20:18:00,72.6,70.1,30.11,WSW,251,0.0,0.0,92,0.00,BKN,,0.05,WeatherDisplay:10.37,2013-08-12 00:18:00,
2013-08-11 20:23:00,72.5,70.1,30.10,WSW,255,0.0,0.0,92,0.00,BKN,,0.05,WeatherDisplay:10.37,2013-08-12 00:23:00,
2013-08-11 20:28:00,72.6,70.1,30.10,WSW,255,0.0,0.0,92,0.00,BKN,,0.05,WeatherDisplay:10.37,2013-08-12 00:28:00,
2013-08-11 20:34:00,72.7,70.6,30.10,WSW,255,0.0,0.0,93,0.00,BKN,,0.05,WeatherDisplay:10.37,2013-08-12 00:34:00,
2013-08-11 20:39:00,72.7,70.6,30.10,WSW,250,0.9,2.3,93,0.00,BKN,,0.05,WeatherDisplay:10.37,2013-08-12 00:39:00,
2013-08-11 20:44:00,72.5,70.4,30.11,West,278,0.1,1.0,93,0.02,RA,,0.07,WeatherDisplay:10.37,2013-08-12 00:44:00,
2013-08-11 20:49:00,72.4,70.3,30.11,WSW,238,1.7,2.3,93,0.03,RA,,0.08,WeatherDisplay:10.37,2013-08-12 00:49:00,
2013-08-11 20:54:00,72.3,70.2,30.12,SSE,159,1.8,3.5,93,0.05,RA,,0.10,WeatherDisplay:10.37,2013-08-12 00:54:00,
2013-08-11 20:59:00,72.2,70.4,30.12,WNW,283,0.9,3.5,94,0.13,RA,,0.18,WeatherDisplay:10.37,2013-08-12 00:59:00,
2013-08-11 21:05:00,72.1,70.3,30.11,WNW,286,0.2,2.3,94,0.23,RA,,0.29,WeatherDisplay:10.37,2013-08-12 01:05:00,
2013-08-11 21:10:00,72.1,70.3,30.11,West,271,0.0,0.0,94,0.28,RA,,0.33,WeatherDisplay:10.37,2013-08-12 01:10:00,
2013-08-11 21:15:00,72.1,70.3,30.11,West,271,0.0,0.0,94,0.28,RA,,0.33,WeatherDisplay:10.37,2013-08-12 01:15:00,
2013-08-11 21:20:00,72.1,70.3,30.11,West,271,0.0,1.2,94,0.28,RA,,0.33,WeatherDisplay:10.37,2013-08-12 01:20:00,
2013-08-11 21:25:00,72.1,70.3,30.11,West,271,0.0,0.0,94,0.28,RA,,0.33,WeatherDisplay:10.37,2013-08-12 01:25:00,
2013-08-11 21:31:00,72.1,70.3,30.12,West,271,0.0,0.0,94,0.28,RA,,0.33,WeatherDisplay:10.37,2013-08-12 01:31:00,
2013-08-11 21:36:00,72.1,70.3,30.12,West,271,0.0,0.0,94,0.28,RA,,0.33,WeatherDisplay:10.37,2013-08-12 01:36:00,
2013-08-11 21:41:00,72.1,70.3,30.12,West,271,0.0,0.0,94,0.28,BKN,,0.33,WeatherDisplay:10.37,2013-08-12 01:41:00,
2013-08-11 21:46:00,72.0,70.2,30.12,West,271,0.0,0.0,94,0.26,BKN,,0.33,WeatherDisplay:10.37,2013-08-12 01:46:00,
2013-08-11 21:51:00,72.0,70.5,30.12,West,271,0.0,0.0,95,0.00,BKN,,0.33,WeatherDisplay:10.37,2013-08-12 01:51:00,
2013-08-11 21:56:00,72.1,70.6,30.12,West,271,0.0,0.0,95,0.21,BKN,,0.33,WeatherDisplay:10.37,2013-08-12 01:56:00,
2013-08-11 22:01:00,72.0,70.5,30.12,West,271,0.0,0.0,95,0.00,BKN,,0.33,WeatherDisplay:10.37,2013-08-12 02:01:00,
2013-08-11 22:06:00,72.0,70.5,30.12,West,271,0.0,0.0,95,0.00,BKN,,0.33,WeatherDisplay:10.37,2013-08-12 02:06:00,
2013-08-11 22:11:00,72.0,70.5,30.12,West,271,0.0,0.0,95,0.00,BKN,,0.33,WeatherDisplay:10.37,2013-08-12 02:11:00,
2013-08-11 22:16:00,71.9,70.4,30.11,West,271,0.0,0.0,95,0.00,BKN,,0.33,WeatherDisplay:10.37,2013-08-12 02:16:00,
2013-08-11 22:21:00,71.9,70.4,30.11,West,271,0.0,0.0,95,0.00,BKN,,0.33,WeatherDisplay:10.37,2013-08-12 02:21:00,
2013-08-11 22:26:00,71.9,70.4,30.11,West,271,0.0,0.0,95,0.00,BKN,,0.33,WeatherDisplay:10.37,2013-08-12 02:26:00,
2013-08-11 22:33:00,71.8,70.3,30.11,West,271,0.0,0.0,95,0.00,BKN,,0.33,WeatherDisplay:10.37,2013-08-12 02:33:00,
2013-08-11 22:38:00,71.8,70.3,30.11,West,271,0.0,0.0,95,0.00,BKN,,0.33,WeatherDisplay:10.37,2013-08-12 02:38:00,
2013-08-11 22:43:00,71.7,70.2,30.11,West,271,0.0,0.0,95,0.00,BKN,,0.33,WeatherDisplay:10.37,2013-08-12 02:43:00,
2013-08-11 22:48:00,71.6,70.1,30.11,West,271,0.0,0.0,95,0.00,BKN,,0.33,WeatherDisplay:10.37,2013-08-12 02:48:00,
2013-08-11 22:54:00,71.5,70.0,30.11,West,271,0.1,1.2,95,0.00,BKN,,0.33,WeatherDisplay:10.37,2013-08-12 02:54:00,
2013-08-11 22:59:00,71.4,69.9,30.11,West,271,0.0,0.0,95,0.00,SCT,,0.33,WeatherDisplay:10.37,2013-08-12 02:59:00,
2013-08-11 23:04:00,71.4,69.9,30.11,West,271,0.0,1.2,95,0.00,SCT,,0.33,WeatherDisplay:10.37,2013-08-12 03:04:00,
2013-08-11 23:10:00,71.3,69.8,30.11,West,271,0.0,0.0,95,0.00,SCT,,0.33,WeatherDisplay:10.37,2013-08-12 03:10:00,
2013-08-11 23:15:00,71.2,69.7,30.11,West,271,0.0,0.0,95,0.00,SCT,,0.33,WeatherDisplay:10.37,2013-08-12 03:15:00,
2013-08-11 23:20:00,71.2,69.7,30.10,West,271,0.0,0.0,95,0.00,SCT,,0.33,WeatherDisplay:10.37,2013-08-12 03:20:00,
2013-08-11 23:25:00,71.1,69.6,30.10,West,271,0.0,0.0,95,0.00,SCT,,0.33,WeatherDisplay:10.37,2013-08-12 03:25:00,
2013-08-11 23:30:00,71.1,69.6,30.10,West,271,0.0,0.0,95,0.00,SCT,,0.33,WeatherDisplay:10.37,2013-08-12 03:30:00,
2013-08-11 23:35:00,71.0,69.5,30.10,West,271,0.0,0.0,95,0.00,SCT,,0.33,WeatherDisplay:10.37,2013-08-12 03:35:00,
2013-08-11 23:40:00,71.0,69.5,30.10,SSE,149,0.0,0.0,95,0.00,SCT,,0.33,WeatherDisplay:10.37,2013-08-12 03:40:00,
2013-08-11 23:45:00,71.0,69.5,30.11,SSE,148,0.0,0.0,95,0.00,SCT,,0.33,WeatherDisplay:10.37,2013-08-12 03:45:00,
2013-08-11 23:51:00,71.0,69.8,30.10,SSE,147,0.0,0.0,96,0.00,SCT,,0.33,WeatherDisplay:10.37,2013-08-12 03:51:00,
2013-08-11 23:56:00,71.0,69.5,30.11,SSE,147,0.0,0.0,95,0.00,SCT,,0.33,WeatherDisplay:10.37,2013-08-12 03:56:00,